Time;durP1;ratioP1;P1;durP2;ratioP2;P2;SDS_P1;SDS_P2;PMS_P1;PMS_P2;Temp;Humidity;BMP_temperature;BMP_pressure;BME280_temperature;BME280_humidity;BME280_pressure;Samples;Min_cycle;Max_cycle;Signal;HPM_P1;HPM_P2
2023/12/07 00:01:42;;;;;;;3.33;1.20;;;9.10;99.90;;;;;;5133077;27;20034;-79
2023/12/07 00:04:07;;;;;;;3.55;1.65;;;9.20;99.90;;;;;;5132930;27;20106;-80
2023/12/07 00:06:33;;;;;;;6.90;1.27;;;9.20;99.90;;;;;;5133422;27;20031;-79
2023/12/07 00:09:00;;;;;;;9.20;1.60;;;9.20;99.90;;;;;;5132786;27;20584;-79
2023/12/07 00:11:26;;;;;;;10.13;1.65;;;9.20;99.90;;;;;;5132866;27;20062;-79
2023/12/07 00:13:52;;;;;;;8.05;1.95;;;9.30;99.90;;;;;;5132861;27;20059;-80
2023/12/07 00:16:18;;;;;;;7.75;1.75;;;9.20;99.90;;;;;;5114681;27;20478;-80
2023/12/07 00:18:44;;;;;;;9.75;1.50;;;9.30;99.90;;;;;;5132203;27;20023;-81
2023/12/07 00:21:10;;;;;;;7.35;1.77;;;9.20;99.90;;;;;;5132224;27;20424;-78
2023/12/07 00:23:37;;;;;;;9.10;1.88;;;9.20;99.90;;;;;;5114558;27;20324;-79
2023/12/07 00:26:04;;;;;;;7.70;1.33;;;9.30;99.90;;;;;;5132185;27;20072;-77
2023/12/07 00:28:29;;;;;;;6.28;1.67;;;9.20;99.90;;;;;;5132279;27;20475;-78
2023/12/07 00:30:55;;;;;;;7.05;1.85;;;9.30;99.90;;;;;;5132550;27;20035;-79
2023/12/07 00:33:21;;;;;;;9.50;1.67;;;9.30;99.90;;;;;;5133386;27;20027;-79
2023/12/07 00:35:47;;;;;;;4.72;1.30;;;9.20;99.90;;;;;;5131701;27;20054;-79
2023/12/07 00:38:13;;;;;;;5.75;1.70;;;9.20;99.90;;;;;;5133232;27;20293;-78
2023/12/07 00:40:40;;;;;;;5.65;1.35;;;9.10;99.90;;;;;;5132381;27;20027;-79
2023/12/07 00:43:07;;;;;;;8.00;1.65;;;9.20;99.90;;;;;;5132327;27;20544;-79
2023/12/07 00:45:32;;;;;;;7.13;1.35;;;9.20;99.90;;;;;;5132562;27;20352;-79
2023/12/07 00:47:58;;;;;;;9.40;2.10;;;9.10;99.90;;;;;;5131694;27;20019;-79
2023/12/07 00:50:24;;;;;;;5.65;1.67;;;9.10;99.90;;;;;;5132108;27;20430;-79
2023/12/07 00:52:49;;;;;;;8.35;1.60;;;9.30;99.90;;;;;;5132040;27;20031;-79
2023/12/07 00:55:15;;;;;;;5.03;1.45;;;9.30;99.90;;;;;;5132483;27;20467;-80
2023/12/07 00:57:41;;;;;;;5.72;1.25;;;9.30;99.90;;;;;;5131663;27;20054;-79
2023/12/07 01:00:08;;;;;;;4.88;1.15;;;9.40;99.90;;;;;;5132228;27;20068;-80
2023/12/07 01:02:34;;;;;;;4.68;1.52;;;9.40;99.90;;;;;;5132621;27;20096;-80
2023/12/07 01:05:00;;;;;;;3.95;0.90;;;9.40;99.90;;;;;;5112850;27;20033;-79
2023/12/07 01:07:26;;;;;;;5.68;1.00;;;9.50;99.90;;;;;;5132163;27;20088;-78
2023/12/07 01:09:52;;;;;;;6.80;1.00;;;9.50;99.90;;;;;;5131390;27;20034;-78
2023/12/07 01:12:18;;;;;;;4.00;0.60;;;9.50;99.90;;;;;;5131776;27;20035;-79
2023/12/07 01:14:44;;;;;;;5.65;1.17;;;9.50;99.90;;;;;;5131316;27;20034;-79
2023/12/07 01:17:09;;;;;;;6.03;0.90;;;9.40;99.90;;;;;;5131834;27;20026;-78
2023/12/07 01:19:35;;;;;;;4.97;0.98;;;9.50;99.90;;;;;;5131958;27;20076;-80
2023/12/07 01:22:01;;;;;;;4.57;0.80;;;9.50;99.90;;;;;;5131797;27;20091;-81
2023/12/07 01:24:27;;;;;;;5.43;1.10;;;9.60;99.90;;;;;;5131637;27;20425;-80
2023/12/07 01:26:52;;;;;;;3.70;0.88;;;9.50;99.90;;;;;;5130895;27;20030;-81
2023/12/07 01:29:18;;;;;;;1.98;0.70;;;9.50;99.90;;;;;;5131739;27;20091;-80
2023/12/07 01:31:44;;;;;;;2.83;0.95;;;9.40;99.90;;;;;;5130818;27;20115;-80
2023/12/07 01:34:11;;;;;;;4.72;0.80;;;9.40;99.90;;;;;;5132080;27;20507;-80
2023/12/07 01:36:36;;;;;;;3.13;0.88;;;9.40;99.90;;;;;;5132041;27;20106;-79
2023/12/07 01:39:03;;;;;;;1.95;0.77;;;9.40;99.90;;;;;;5131411;27;20558;-79
2023/12/07 01:41:28;;;;;;;2.70;0.80;;;9.50;99.90;;;;;;5132189;27;20034;-80
2023/12/07 01:43:54;;;;;;;2.40;0.70;;;9.50;99.90;;;;;;5132017;27;20039;-79
2023/12/07 01:46:20;;;;;;;3.55;0.77;;;9.40;99.90;;;;;;5132438;27;20068;-80
2023/12/07 01:48:49;;;;;;;2.58;0.73;;;9.50;99.90;;;;;;5131304;27;20038;-80
2023/12/07 01:51:17;;;;;;;3.72;0.82;;;9.50;99.90;;;;;;5132117;27;20034;-79
2023/12/07 01:53:43;;;;;;;1.20;0.55;;;9.40;99.90;;;;;;5132227;27;20078;-80
2023/12/07 01:56:10;;;;;;;2.58;0.82;;;9.50;99.90;;;;;;5132686;27;20051;-78
2023/12/07 01:58:37;;;;;;;2.20;0.65;;;9.50;99.90;;;;;;5132430;27;20107;-78
2023/12/07 02:01:03;;;;;;;3.97;0.77;;;9.40;99.90;;;;;;5132063;27;20023;-78
2023/12/07 02:03:31;;;;;;;3.03;0.80;;;9.40;99.90;;;;;;5132488;27;20130;-77
2023/12/07 02:05:58;;;;;;;2.28;0.88;;;9.50;99.90;;;;;;5112781;28;20035;-79
2023/12/07 02:08:24;;;;;;;4.65;0.93;;;9.50;99.90;;;;;;5131807;27;20019;-79
2023/12/07 02:10:52;;;;;;;3.08;0.70;;;9.50;99.90;;;;;;5131162;27;20055;-79
2023/12/07 02:13:19;;;;;;;3.30;1.02;;;9.50;99.90;;;;;;5130801;27;20027;-79
2023/12/07 02:15:45;;;;;;;4.05;1.00;;;9.40;99.90;;;;;;5131033;28;20031;-79
2023/12/07 02:18:31;;;;;;;2.97;0.70;;;9.50;99.90;;;;;;5131370;28;20468;-79
2023/12/07 02:21:21;;;;;;;4.10;1.10;;;9.40;99.90;;;;;;5131212;28;20031;-79
2023/12/07 02:23:48;;;;;;;2.22;0.50;;;9.40;99.90;;;;;;5131039;28;20096;-79
2023/12/07 02:26:18;;;;;;;4.57;1.10;;;9.50;99.90;;;;;;5130983;28;20444;-79
2023/12/07 02:28:44;;;;;;;4.32;1.30;;;9.50;99.90;;;;;;5131259;28;20031;-79
2023/12/07 02:31:09;;;;;;;4.88;0.95;;;9.50;99.90;;;;;;5112225;28;20027;-79
2023/12/07 02:33:35;;;;;;;4.00;0.80;;;9.50;99.90;;;;;;5131367;28;20039;-78
2023/12/07 02:36:01;;;;;;;2.88;0.90;;;9.40;99.90;;;;;;5131014;28;20102;-78
2023/12/07 02:38:28;;;;;;;2.92;0.57;;;9.40;99.90;;;;;;5130953;28;20020;-79
2023/12/07 02:40:55;;;;;;;2.13;0.57;;;9.50;99.90;;;;;;5130489;28;20467;-79
2023/12/07 02:43:22;;;;;;;3.13;0.73;;;9.40;99.90;;;;;;5132088;27;20023;-79
2023/12/07 02:45:48;;;;;;;1.70;0.68;;;9.40;99.90;;;;;;5134539;27;20031;-80
2023/12/07 02:48:14;;;;;;;5.32;0.77;;;9.60;99.90;;;;;;5116830;27;20465;-78
2023/12/07 02:50:40;;;;;;;3.55;1.17;;;9.50;99.90;;;;;;5135080;27;20031;-79
2023/12/07 02:53:06;;;;;;;7.35;1.40;;;9.50;99.90;;;;;;5134684;27;20760;-79
2023/12/07 02:55:31;;;;;;;3.38;0.70;;;9.60;99.90;;;;;;5135360;27;20051;-80
2023/12/07 02:57:58;;;;;;;4.88;0.82;;;9.60;99.90;;;;;;5134504;27;20050;-79
2023/12/07 03:00:24;;;;;;;5.57;0.98;;;9.60;99.90;;;;;;5135191;27;20030;-79
2023/12/07 03:02:50;;;;;;;2.05;0.65;;;9.50;99.90;;;;;;5134412;27;20035;-80
2023/12/07 03:05:16;;;;;;;4.88;0.73;;;9.50;99.90;;;;;;5135059;27;20035;-79
2023/12/07 03:07:42;;;;;;;4.28;1.15;;;9.60;99.90;;;;;;5135129;27;20127;-79
2023/12/07 03:10:08;;;;;;;3.85;0.77;;;9.50;99.90;;;;;;5134338;27;20511;-79
2023/12/07 03:12:34;;;;;;;3.55;0.98;;;9.70;99.90;;;;;;5134691;27;20031;-79
2023/12/07 03:14:59;;;;;;;1.98;0.80;;;9.70;99.90;;;;;;5134352;27;20019;-80
2023/12/07 03:17:25;;;;;;;4.13;0.82;;;9.70;99.90;;;;;;5135001;27;20038;-80
2023/12/07 03:19:51;;;;;;;3.50;0.90;;;9.70;99.90;;;;;;5134533;27;20394;-79
2023/12/07 03:22:16;;;;;;;4.18;0.80;;;9.60;99.90;;;;;;5116241;27;20031;-79
2023/12/07 03:24:47;;;;;;;4.53;1.10;;;9.70;99.90;;;;;;5116213;27;20023;-79
2023/12/07 03:27:13;;;;;;;3.28;0.75;;;9.60;99.90;;;;;;5134509;27;20027;-79
2023/12/07 03:29:39;;;;;;;4.57;1.02;;;9.70;99.90;;;;;;5134885;27;20027;-79
2023/12/07 03:32:05;;;;;;;5.07;0.90;;;9.70;99.90;;;;;;5134493;27;20031;-79
2023/12/07 03:34:30;;;;;;;4.03;1.05;;;9.80;99.90;;;;;;5115941;27;20456;-80
2023/12/07 03:36:56;;;;;;;5.82;1.40;;;9.80;99.90;;;;;;5134009;27;20027;-79
2023/12/07 03:39:22;;;;;;;2.42;1.15;;;9.90;99.90;;;;;;5134639;27;20101;-79
2023/12/07 03:41:48;;;;;;;5.40;1.35;;;9.90;99.90;;;;;;5134515;27;20023;-80
2023/12/07 03:44:15;;;;;;;6.75;1.42;;;9.90;99.90;;;;;;5134605;27;20460;-79
2023/12/07 03:46:40;;;;;;;3.35;1.38;;;9.90;99.90;;;;;;5134499;27;20495;-78
2023/12/07 03:49:06;;;;;;;3.67;0.88;;;9.80;99.90;;;;;;5134174;27;20023;-79
2023/12/07 03:51:32;;;;;;;6.15;1.30;;;9.80;99.90;;;;;;5134816;27;20033;-80
2023/12/07 03:53:57;;;;;;;5.82;0.90;;;10.00;99.90;;;;;;5115279;27;20045;-81
2023/12/07 03:56:28;;;;;;;8.00;1.20;;;10.00;99.90;;;;;;5133559;27;20074;-80
2023/12/07 03:58:55;;;;;;;4.53;1.42;;;9.90;99.90;;;;;;5133607;27;20058;-78
2023/12/07 04:01:25;;;;;;;3.08;0.95;;;10.00;99.90;;;;;;5134068;27;20057;-79
2023/12/07 04:03:54;;;;;;;5.38;1.17;;;10.00;99.90;;;;;;5133114;27;20037;-79
2023/12/07 04:06:22;;;;;;;3.78;1.23;;;10.00;99.90;;;;;;5134146;27;20031;-78
2023/12/07 04:08:47;;;;;;;7.03;1.05;;;10.00;99.90;;;;;;5134046;27;20144;-79
2023/12/07 04:11:14;;;;;;;7.03;1.00;;;9.90;99.90;;;;;;5133342;27;20035;-78
2023/12/07 04:13:41;;;;;;;2.53;0.90;;;10.10;99.90;;;;;;5133844;27;20127;-78
2023/12/07 04:16:07;;;;;;;8.32;1.10;;;10.10;99.90;;;;;;5133154;27;20083;-79
2023/12/07 04:18:33;;;;;;;4.93;1.08;;;10.10;99.90;;;;;;5114896;27;20110;-78
2023/12/07 04:20:59;;;;;;;9.73;1.30;;;10.10;99.90;;;;;;5132749;27;20130;-79
2023/12/07 04:23:25;;;;;;;3.92;1.05;;;10.00;99.90;;;;;;5133407;27;20023;-78
2023/12/07 04:25:51;;;;;;;4.68;0.90;;;10.10;99.90;;;;;;5133547;27;20106;-79
2023/12/07 04:28:16;;;;;;;5.97;1.20;;;10.00;99.90;;;;;;5132741;27;20054;-78
2023/12/07 04:30:42;;;;;;;5.32;1.23;;;10.00;99.90;;;;;;5133548;27;20114;-79
2023/12/07 04:33:08;;;;;;;2.90;1.10;;;10.00;99.90;;;;;;5133536;27;20298;-79
2023/12/07 04:35:34;;;;;;;4.78;1.27;;;10.20;99.90;;;;;;5115189;27;20024;-79
2023/12/07 04:38:00;;;;;;;2.70;0.75;;;10.00;99.90;;;;;;5133103;27;20117;-80
2023/12/07 04:40:26;;;;;;;2.25;0.88;;;10.10;99.90;;;;;;5133215;27;20051;-80
2023/12/07 04:42:51;;;;;;;3.13;0.68;;;10.00;99.90;;;;;;5114740;27;20060;-80
2023/12/07 04:45:17;;;;;;;2.83;0.77;;;10.10;99.90;;;;;;5133359;27;20027;-80
2023/12/07 04:47:43;;;;;;;2.47;0.85;;;10.10;99.90;;;;;;5133536;27;20054;-79
2023/12/07 04:50:09;;;;;;;2.15;0.80;;;9.90;99.90;;;;;;5132306;27;20019;-78
2023/12/07 04:52:36;;;;;;;2.33;0.70;;;10.00;99.90;;;;;;5133204;27;20041;-80
2023/12/07 04:55:01;;;;;;;7.07;1.10;;;10.10;99.90;;;;;;5132539;27;20023;-80
2023/12/07 04:57:27;;;;;;;4.70;0.85;;;10.10;99.90;;;;;;5132845;27;20038;-79
2023/12/07 04:59:53;;;;;;;3.63;0.90;;;10.00;99.90;;;;;;5132935;27;20019;-80
2023/12/07 05:02:19;;;;;;;8.00;1.20;;;9.90;99.90;;;;;;5132725;27;20344;-80
2023/12/07 05:04:45;;;;;;;3.28;0.95;;;10.00;99.90;;;;;;5133474;27;20042;-79
2023/12/07 05:07:12;;;;;;;5.80;1.30;;;9.90;99.90;;;;;;5132304;27;20054;-80
2023/12/07 05:09:38;;;;;;;4.85;1.38;;;10.10;99.90;;;;;;5132670;27;20019;-80
2023/12/07 05:12:05;;;;;;;9.40;1.83;;;10.10;99.90;;;;;;5132833;27;20027;-80
2023/12/07 05:14:31;;;;;;;7.18;1.48;;;10.00;99.90;;;;;;5133182;27;20027;-79
2023/12/07 05:16:57;;;;;;;7.72;1.83;;;10.10;99.90;;;;;;5132550;27;20062;-80
2023/12/07 05:19:23;;;;;;;10.60;1.60;;;10.10;99.90;;;;;;5133017;27;20051;-80
2023/12/07 05:21:50;;;;;;;7.90;1.40;;;10.00;99.90;;;;;;5132392;27;20455;-80
2023/12/07 05:24:16;;;;;;;7.93;2.25;;;10.00;99.90;;;;;;5131790;27;20038;-79
2023/12/07 05:26:42;;;;;;;9.35;2.00;;;10.10;99.90;;;;;;5132530;27;20019;-80
2023/12/07 05:29:09;;;;;;;7.35;1.45;;;10.00;99.90;;;;;;5131117;27;20019;-80
2023/12/07 05:31:36;;;;;;;11.80;1.98;;;9.90;99.90;;;;;;5132847;27;20118;-79
2023/12/07 05:34:02;;;;;;;6.15;1.63;;;10.00;99.90;;;;;;5131916;27;20034;-80
2023/12/07 05:36:28;;;;;;;11.85;2.13;;;10.10;99.90;;;;;;5131880;27;20379;-79
2023/12/07 05:38:53;;;;;;;10.55;2.00;;;10.10;99.90;;;;;;5132297;27;20142;-80
2023/12/07 05:41:19;;;;;;;11.52;2.20;;;10.10;99.90;;;;;;5132689;27;20102;-79
2023/12/07 05:43:45;;;;;;;10.95;2.60;;;10.00;99.90;;;;;;5132059;27;20083;-79
2023/12/07 05:46:10;;;;;;;12.48;2.35;;;10.00;99.90;;;;;;5131340;27;20027;-79
2023/12/07 05:48:36;;;;;;;20.73;3.40;;;10.00;99.90;;;;;;5131761;27;20019;-79
2023/12/07 05:51:02;;;;;;;18.33;3.90;;;10.10;99.90;;;;;;5131298;27;20030;-80
2023/12/07 05:53:28;;;;;;;18.08;3.88;;;10.00;99.90;;;;;;5131422;27;20032;-80
2023/12/07 05:55:57;;;;;;;14.20;3.30;;;10.00;99.90;;;;;;5131822;27;20043;-79
2023/12/07 05:58:22;;;;;;;13.93;3.08;;;10.10;99.90;;;;;;5131313;27;20030;-79
2023/12/07 06:00:49;;;;;;;17.20;3.35;;;10.00;99.90;;;;;;5131492;27;20031;-80
2023/12/07 06:03:15;;;;;;;14.05;3.30;;;10.10;99.90;;;;;;5112293;27;20123;-79
2023/12/07 06:05:41;;;;;;;16.85;3.05;;;10.10;99.90;;;;;;5131895;27;20446;-79
2023/12/07 06:08:07;;;;;;;19.38;3.33;;;10.10;99.90;;;;;;5131288;27;20051;-80
2023/12/07 06:10:33;;;;;;;15.45;3.38;;;10.20;99.90;;;;;;5131799;27;20027;-79
2023/12/07 06:13:00;;;;;;;21.65;3.33;;;10.20;99.90;;;;;;5131338;27;20124;-81
2023/12/07 06:15:27;;;;;;;18.48;3.75;;;10.10;99.90;;;;;;5131952;28;20024;-79
2023/12/07 06:17:54;;;;;;;22.75;3.38;;;10.20;99.90;;;;;;5131444;27;20019;-79
2023/12/07 06:20:20;;;;;;;17.90;3.22;;;10.30;99.90;;;;;;5131495;28;20102;-79
2023/12/07 06:22:46;;;;;;;27.58;4.95;;;10.30;99.90;;;;;;5131768;28;20111;-77
2023/12/07 06:25:11;;;;;;;30.20;5.85;;;10.30;99.90;;;;;;5112298;28;20027;-78
2023/12/07 06:27:38;;;;;;;24.83;4.10;;;10.20;99.90;;;;;;5131336;28;20356;-78
2023/12/07 06:30:08;;;;;;;38.85;5.75;;;10.20;99.90;;;;;;5130516;28;20106;-78
2023/12/07 06:32:34;;;;;;;34.80;6.28;;;10.40;99.90;;;;;;5133376;28;20054;-78
2023/12/07 06:35:00;;;;;;;30.70;5.55;;;10.20;99.90;;;;;;5130923;28;20537;-79
2023/12/07 06:37:26;;;;;;;26.42;5.18;;;10.40;99.90;;;;;;5113119;28;20023;-78
2023/12/07 06:39:52;;;;;;;29.23;5.25;;;10.20;99.90;;;;;;5131583;28;20121;-78
2023/12/07 06:42:18;;;;;;;36.92;6.25;;;10.40;99.90;;;;;;5131387;28;20198;-78
2023/12/07 06:44:48;;;;;;;38.83;5.43;;;10.50;99.90;;;;;;5131465;28;20110;-78
2023/12/07 06:47:14;;;;;;;26.92;4.80;;;10.40;99.90;;;;;;5130615;28;20031;-78
2023/12/07 06:49:39;;;;;;;16.80;3.88;;;10.40;99.90;;;;;;5131338;28;20027;-78
2023/12/07 06:52:05;;;;;;;26.45;4.47;;;10.50;99.90;;;;;;5130330;28;20080;-80
2023/12/07 06:54:31;;;;;;;28.63;4.80;;;10.60;99.90;;;;;;5131559;28;20103;-79
2023/12/07 06:56:56;;;;;;;37.20;4.93;;;10.70;99.90;;;;;;5130813;28;20326;-78
2023/12/07 06:59:22;;;;;;;31.30;5.15;;;10.80;99.90;;;;;;5111900;28;20031;-79
2023/12/07 07:01:48;;;;;;;22.80;4.50;;;10.80;99.90;;;;;;5131039;28;20024;-78
2023/12/07 07:04:14;;;;;;;29.10;5.85;;;10.90;99.90;;;;;;5130055;28;20038;-79
2023/12/07 07:06:41;;;;;;;20.83;4.85;;;10.90;99.90;;;;;;5112500;28;20126;-79
2023/12/07 07:09:06;;;;;;;20.40;4.15;;;10.70;99.90;;;;;;5130438;28;20023;-79
2023/12/07 07:11:32;;;;;;;21.38;4.43;;;10.90;99.90;;;;;;5130979;28;20024;-79
2023/12/07 07:13:58;;;;;;;28.27;4.57;;;10.70;99.90;;;;;;5131160;28;20031;-79
2023/12/07 07:16:24;;;;;;;30.85;4.45;;;10.90;99.90;;;;;;5130531;28;20023;-79
2023/12/07 07:18:50;;;;;;;26.48;4.60;;;11.00;99.90;;;;;;5131006;28;20160;-79
2023/12/07 07:21:15;;;;;;;19.67;3.58;;;11.20;99.90;;;;;;5129986;28;20043;-78
2023/12/07 07:23:41;;;;;;;19.77;3.80;;;11.10;99.90;;;;;;5130220;28;20050;-77
2023/12/07 07:26:08;;;;;;;24.58;4.40;;;11.20;99.90;;;;;;5111449;28;20035;-79
2023/12/07 07:28:34;;;;;;;15.55;4.13;;;11.00;99.90;;;;;;5130459;28;20035;-78
2023/12/07 07:31:00;;;;;;;26.25;5.25;;;11.00;99.90;;;;;;5113540;27;20034;-80
2023/12/07 07:33:26;;;;;;;18.95;3.55;;;11.10;99.90;;;;;;5133846;27;20098;-79
2023/12/07 07:35:52;;;;;;;30.40;4.35;;;11.00;99.90;;;;;;5134703;27;20092;-79
2023/12/07 07:38:17;;;;;;;28.65;4.35;;;11.10;99.90;;;;;;5133650;27;20027;-79
2023/12/07 07:40:45;;;;;;;19.70;3.75;;;11.10;99.90;;;;;;5134739;27;20459;-79
2023/12/07 07:43:11;;;;;;;22.48;5.28;;;11.10;99.90;;;;;;5134212;27;20019;-80
2023/12/07 07:45:36;;;;;;;26.67;4.43;;;11.10;99.90;;;;;;5134795;27;20344;-80
2023/12/07 07:48:02;;;;;;;29.80;4.45;;;10.90;99.90;;;;;;5135025;27;20020;-79
2023/12/07 07:50:28;;;;;;;23.48;4.40;;;11.10;99.90;;;;;;5115522;27;20427;-79
2023/12/07 07:52:55;;;;;;;33.83;5.80;;;11.10;99.90;;;;;;5134312;27;20027;-80
2023/12/07 07:55:20;;;;;;;22.33;4.85;;;11.10;99.90;;;;;;5115229;27;20153;-79
2023/12/07 07:57:46;;;;;;;20.05;4.35;;;10.90;99.90;;;;;;5134689;27;20112;-79
2023/12/07 08:00:13;;;;;;;25.95;4.57;;;10.90;99.90;;;;;;5133411;27;20446;-79
2023/12/07 08:02:39;;;;;;;22.88;4.80;;;11.10;99.90;;;;;;5133198;27;20027;-78
2023/12/07 08:05:05;;;;;;;21.05;3.40;;;10.90;99.90;;;;;;5133683;27;20034;-80
2023/12/07 08:07:31;;;;;;;18.17;4.05;;;11.00;99.90;;;;;;5133501;27;20038;-79
2023/12/07 08:09:56;;;;;;;16.27;3.00;;;11.00;99.90;;;;;;5114630;27;20046;-79
2023/12/07 08:12:25;;;;;;;18.50;2.92;;;11.00;99.90;;;;;;5133297;27;20031;-79
2023/12/07 08:14:50;;;;;;;19.45;2.90;;;11.10;99.90;;;;;;5133776;27;20024;-80
2023/12/07 08:17:16;;;;;;;21.02;3.85;;;11.20;99.90;;;;;;5133256;27;20536;-78
2023/12/07 08:19:42;;;;;;;17.50;3.58;;;11.30;99.90;;;;;;5133696;27;20389;-79
2023/12/07 08:22:08;;;;;;;16.90;3.17;;;11.40;99.90;;;;;;5114131;27;20433;-80
2023/12/07 08:24:35;;;;;;;20.20;3.08;;;11.40;99.90;;;;;;5133449;27;20024;-79
2023/12/07 08:27:01;;;;;;;19.73;3.40;;;11.40;99.90;;;;;;5115258;27;20023;-78
2023/12/07 08:29:26;;;;;;;16.48;3.13;;;11.40;99.90;;;;;;5133043;27;20015;-79
2023/12/07 08:31:52;;;;;;;17.08;3.40;;;11.50;99.90;;;;;;5133298;27;20026;-79
2023/12/07 08:34:18;;;;;;;16.60;3.35;;;11.50;99.90;;;;;;5133076;27;20116;-79
2023/12/07 08:36:43;;;;;;;19.05;3.20;;;11.40;99.90;;;;;;5132994;27;20490;-79
2023/12/07 08:39:11;;;;;;;13.20;3.42;;;11.50;99.90;;;;;;5132780;27;20023;-78
2023/12/07 08:41:37;;;;;;;15.80;3.17;;;11.50;99.90;;;;;;5132729;27;20027;-79
2023/12/07 08:44:03;;;;;;;20.23;2.85;;;11.50;99.90;;;;;;5133487;27;20023;-79
2023/12/07 08:46:29;;;;;;;15.98;2.88;;;11.50;99.90;;;;;;5132669;27;20027;-78
2023/12/07 08:48:56;;;;;;;14.15;3.17;;;11.40;99.90;;;;;;5133047;27;20033;-78
2023/12/07 08:51:22;;;;;;;16.08;3.00;;;11.40;99.90;;;;;;5113958;27;20023;-79
2023/12/07 08:53:47;;;;;;;26.08;3.15;;;11.40;99.90;;;;;;5133475;27;20085;-79
2023/12/07 08:56:13;;;;;;;20.92;2.75;;;11.40;99.90;;;;;;5132423;27;20457;-80
2023/12/07 08:58:39;;;;;;;19.02;2.88;;;11.40;99.90;;;;;;5133644;27;20402;-79
2023/12/07 09:01:05;;;;;;;18.95;3.08;;;11.40;99.90;;;;;;5132733;27;20029;-79
2023/12/07 09:03:31;;;;;;;16.63;3.17;;;11.50;99.90;;;;;;5132181;27;20437;-79
2023/12/07 09:06:02;;;;;;;16.33;2.35;;;11.40;99.90;;;;;;5132981;27;20027;-79
2023/12/07 09:08:28;;;;;;;15.20;2.67;;;11.50;99.90;;;;;;5132201;27;20028;-79
2023/12/07 09:10:53;;;;;;;12.25;2.33;;;11.60;99.90;;;;;;5132623;27;20421;-79
2023/12/07 09:13:19;;;;;;;9.77;2.60;;;11.70;99.90;;;;;;5131875;27;20031;-78
2023/12/07 09:15:45;;;;;;;11.45;2.70;;;11.80;99.90;;;;;;5114026;27;20031;-79
2023/12/07 09:18:11;;;;;;;17.23;2.28;;;11.80;99.90;;;;;;5132058;27;20050;-80
2023/12/07 09:20:37;;;;;;;11.38;2.08;;;11.90;99.90;;;;;;5132708;27;20400;-78
2023/12/07 09:23:03;;;;;;;12.45;1.98;;;12.00;99.90;;;;;;5132271;27;20066;-79
2023/12/07 09:25:30;;;;;;;10.10;1.95;;;12.00;99.90;;;;;;5131732;27;20033;-79
2023/12/07 09:27:56;;;;;;;13.68;2.30;;;12.00;99.90;;;;;;5132416;27;20023;-79
2023/12/07 09:30:22;;;;;;;9.13;1.70;;;12.10;99.90;;;;;;5131745;27;20023;-80
2023/12/07 09:32:47;;;;;;;14.13;2.10;;;12.00;99.90;;;;;;5132277;27;20027;-78
2023/12/07 09:35:14;;;;;;;7.28;2.15;;;12.00;99.90;;;;;;5131717;27;20023;-81
2023/12/07 09:37:40;;;;;;;9.15;1.83;;;12.10;99.90;;;;;;5131687;27;20431;-79
2023/12/07 09:40:07;;;;;;;6.05;1.50;;;12.00;99.90;;;;;;5131833;27;20027;-80
2023/12/07 09:42:33;;;;;;;4.85;1.10;;;12.20;99.90;;;;;;5131492;27;20030;-80
2023/12/07 09:44:59;;;;;;;7.97;1.60;;;12.20;99.90;;;;;;5132075;27;20027;-79
2023/12/07 09:47:30;;;;;;;5.80;1.58;;;12.10;99.90;;;;;;5131540;27;20340;-80
2023/12/07 09:49:57;;;;;;;9.68;1.88;;;12.10;99.90;;;;;;5131994;27;20070;-79
2023/12/07 09:52:24;;;;;;;8.50;1.73;;;12.20;99.90;;;;;;5112446;27;20141;-77
2023/12/07 09:54:51;;;;;;;6.03;1.33;;;12.20;99.90;;;;;;5113046;27;20054;-79
2023/12/07 09:57:17;;;;;;;6.07;1.05;;;12.20;99.90;;;;;;5131253;27;20071;-79
2023/12/07 09:59:43;;;;;;;6.00;1.25;;;12.10;99.90;;;;;;5131820;27;20107;-79
2023/12/07 10:02:09;;;;;;;6.30;1.20;;;12.00;99.90;;;;;;5113729;27;20038;-79
2023/12/07 10:04:36;;;;;;;3.95;1.10;;;11.90;99.90;;;;;;5131491;27;20031;-80
2023/12/07 10:07:02;;;;;;;3.40;0.98;;;12.00;99.90;;;;;;5131807;27;20015;-77
2023/12/07 10:09:28;;;;;;;2.15;0.80;;;12.00;99.90;;;;;;5113119;27;20023;-79
2023/12/07 10:12:06;;;;;;;3.92;1.17;;;12.00;99.90;;;;;;5131909;27;20054;-79
2023/12/07 10:14:32;;;;;;;5.85;0.82;;;11.90;99.90;;;;;;5130950;27;20034;-78
2023/12/07 10:17:00;;;;;;;5.45;0.90;;;11.90;99.90;;;;;;5113478;28;20026;-81
2023/12/07 10:19:27;;;;;;;2.05;0.52;;;11.80;99.90;;;;;;5131413;28;20512;-78
2023/12/07 10:21:53;;;;;;;0.75;0.52;;;11.90;99.90;;;;;;5132171;28;20114;-80
2023/12/07 10:24:24;;;;;;;0.60;0.50;;;11.70;99.90;;;;;;5131406;28;20031;-80
2023/12/07 10:26:52;;;;;;;2.22;0.50;;;11.80;99.90;;;;;;5132053;28;20102;-79
2023/12/07 10:29:19;;;;;;;0.50;0.32;;;11.80;99.90;;;;;;5131630;28;20037;-80
2023/12/07 10:31:47;;;;;;;1.27;0.60;;;11.70;99.90;;;;;;5132636;28;20077;-80
2023/12/07 10:34:13;;;;;;;2.60;0.47;;;11.80;99.90;;;;;;5132025;28;20023;-80
2023/12/07 10:36:38;;;;;;;1.65;0.60;;;11.80;99.90;;;;;;5132100;28;20058;-77
2023/12/07 10:39:07;;;;;;;1.65;0.40;;;11.80;99.90;;;;;;5114216;28;20030;-77
2023/12/07 10:41:35;;;;;;;2.20;0.50;;;11.80;99.90;;;;;;5113444;28;20106;-78
2023/12/07 10:44:01;;;;;;;1.08;0.50;;;11.70;99.90;;;;;;5132320;28;20111;-79
2023/12/07 10:46:27;;;;;;;1.77;0.55;;;11.70;99.90;;;;;;5131665;28;20103;-79
2023/12/07 10:49:05;;;;;;;0.80;0.40;;;11.80;99.90;;;;;;5132117;28;20045;-77
2023/12/07 10:52:03;;;;;;;0.75;0.45;;;11.70;99.90;;;;;;5130931;28;20039;-79
2023/12/07 10:55:06;;;;;;;1.20;0.75;;;11.80;99.90;;;;;;5130758;28;20084;-79
2023/12/07 10:57:34;;;;;;;2.47;0.52;;;11.80;99.90;;;;;;5112157;28;20046;-80
2023/12/07 11:00:01;;;;;;;2.22;0.70;;;11.70;99.90;;;;;;5131589;28;20020;-78
2023/12/07 11:02:32;;;;;;;1.60;0.60;;;11.70;99.90;;;;;;5130905;28;20039;-79
2023/12/07 11:04:59;;;;;;;1.35;0.60;;;11.90;99.90;;;;;;5114569;27;20034;-79
2023/12/07 11:07:34;;;;;;;1.65;0.73;;;11.70;99.90;;;;;;5134669;27;20061;-80
2023/12/07 11:10:15;;;;;;;4.03;1.00;;;11.80;99.90;;;;;;5135081;27;20024;-79
2023/12/07 11:12:49;;;;;;;3.80;0.85;;;11.80;99.90;;;;;;5134516;27;20501;-79
2023/12/07 11:15:17;;;;;;;2.17;0.77;;;11.90;99.90;;;;;;5134537;27;20082;-79
2023/12/07 11:17:54;;;;;;;3.33;1.20;;;11.70;99.90;;;;;;5134037;27;20028;-81
2023/12/07 11:20:43;;;;;;;1.45;0.60;;;11.80;99.90;;;;;;5133544;27;20030;-81
2023/12/07 11:23:09;;;;;;;1.13;0.70;;;11.80;99.90;;;;;;5134158;27;20190;-81
2023/12/07 11:25:36;;;;;;;1.45;0.90;;;11.90;99.90;;;;;;5133669;27;20153;-81
2023/12/07 11:28:03;;;;;;;3.70;1.00;;;11.90;99.90;;;;;;5115712;27;20030;-80
2023/12/07 11:30:35;;;;;;;4.45;1.23;;;11.90;99.90;;;;;;5133936;27;20023;-80
2023/12/07 11:33:03;;;;;;;8.40;1.00;;;12.00;99.90;;;;;;5134119;27;20027;-80
2023/12/07 11:35:29;;;;;;;7.47;1.20;;;11.90;99.90;;;;;;5133973;27;20494;-81
2023/12/07 11:38:09;;;;;;;2.47;0.98;;;12.00;99.90;;;;;;5115101;27;20062;-81
2023/12/07 11:40:36;;;;;;;4.20;1.05;;;11.90;99.90;;;;;;5133378;27;20221;-81
2023/12/07 11:43:05;;;;;;;1.60;0.82;;;12.10;99.90;;;;;;5133822;27;20035;-83
2023/12/07 11:45:57;;;;;;;4.88;1.13;;;12.20;99.90;;;;;;5115022;27;20031;-82
2023/12/07 11:48:22;;;;;;;5.10;0.93;;;12.20;99.90;;;;;;5130556;27;20039;-87
2023/12/07 11:51:08;;;;;;;4.40;1.30;;;12.10;99.90;;;;;;5115778;27;20027;-85
2023/12/07 11:53:35;;;;;;;5.97;1.98;;;12.20;99.90;;;;;;5133035;27;20071;-82
2023/12/07 11:56:09;;;;;;;4.47;2.13;;;12.10;99.90;;;;;;5133514;27;20445;-82
2023/12/07 11:58:37;;;;;;;6.40;1.90;;;12.20;99.90;;;;;;5132840;27;20104;-82
2023/12/07 12:01:04;;;;;;;4.53;1.60;;;12.00;99.90;;;;;;5133720;27;20023;-82
2023/12/07 12:03:34;;;;;;;5.13;1.25;;;12.10;99.90;;;;;;5133193;27;20038;-82
2023/12/07 12:06:04;;;;;;;4.07;1.00;;;12.00;99.90;;;;;;5134860;27;20046;-85
2023/12/07 12:08:30;;;;;;;3.35;0.88;;;12.20;99.90;;;;;;5134084;27;20042;-84
2023/12/07 12:10:59;;;;;;;7.05;2.60;;;12.10;99.90;;;;;;5115709;27;20030;-81
2023/12/07 12:13:33;;;;;;;6.13;2.33;;;12.10;99.90;;;;;;5133601;27;20062;-82
2023/12/07 12:15:59;;;;;;;3.25;1.70;;;12.10;99.90;;;;;;5132755;27;20019;-82
2023/12/07 12:18:26;;;;;;;4.50;1.50;;;12.10;99.90;;;;;;5134422;27;20027;-84
2023/12/07 12:20:55;;;;;;;5.22;1.38;;;12.10;99.90;;;;;;5115664;27;20019;-85
2023/12/07 12:23:21;;;;;;;4.75;1.50;;;12.10;99.90;;;;;;5133768;27;20473;-85
2023/12/07 12:25:48;;;;;;;4.05;1.30;;;12.10;99.90;;;;;;5115499;27;20035;-83
2023/12/07 12:28:21;;;;;;;4.10;1.50;;;12.20;99.90;;;;;;5115994;27;20114;-86
2023/12/07 12:30:48;;;;;;;5.63;1.50;;;12.00;99.90;;;;;;5134191;27;20023;-84
2023/12/07 12:33:14;;;;;;;6.03;1.23;;;12.00;99.90;;;;;;5117022;27;20042;-88
2023/12/07 12:35:40;;;;;;;6.40;2.05;;;12.10;99.90;;;;;;5116657;27;20563;-89
2023/12/07 12:38:12;;;;;;;7.72;2.17;;;12.10;99.90;;;;;;5117794;27;20027;-86
2023/12/07 12:40:38;;;;;;;8.83;2.03;;;12.10;99.90;;;;;;5117008;27;20106;-88
2023/12/07 12:43:07;;;;;;;2.17;1.17;;;12.10;99.90;;;;;;5136562;27;20100;-88
2023/12/07 12:45:36;;;;;;;9.05;1.50;;;12.10;99.90;;;;;;5115660;27;20019;-88
2023/12/07 12:48:02;;;;;;;5.95;1.75;;;12.00;99.90;;;;;;5116277;27;20037;-87